createdAt,value
2022-10-07T13:54:52.789Z,49.80
2022-10-07T13:57:57.541Z,49.80
2022-10-07T14:01:04.595Z,51.46
2022-10-07T14:05:51.700Z,51.77
2022-10-07T14:08:55.355Z,51.77
2022-10-07T14:12:06.587Z,53.63
2022-10-07T14:15:15.832Z,53.96
2022-10-07T14:18:18.921Z,55.94
2022-10-07T14:21:23.570Z,56.00
2022-10-07T14:24:27.378Z,56.74
2022-10-07T14:28:17.976Z,57.11
2022-10-07T14:31:39.906Z,58.46
2022-10-07T14:35:03.509Z,58.03
2022-10-07T14:38:27.539Z,58.40
2022-10-07T14:41:32.357Z,60.11
2022-10-07T14:44:36.485Z,59.43
2022-10-07T14:47:41.630Z,60.36
2022-10-07T14:50:45.211Z,60.88
2022-10-07T14:53:52.570Z,61.86
2022-10-07T14:56:55.632Z,62.20
2022-10-07T15:00:00.626Z,63.15
2022-10-07T15:03:04.281Z,64.11
2022-10-07T15:06:07.748Z,63.97
2022-10-07T15:09:13.454Z,65.46
2022-10-07T15:12:17.005Z,65.90
2022-10-07T15:15:20.296Z,65.81
2022-10-07T15:18:23.878Z,66.14
2022-10-07T15:21:29.447Z,67.16
2022-10-07T15:24:33.349Z,66.97
2022-10-07T15:27:37.836Z,68.13
2022-10-07T15:30:41.246Z,68.47
2022-10-07T15:33:44.640Z,69.35
2022-10-07T15:36:48.764Z,70.77
2022-10-07T15:39:51.812Z,71.78
2022-10-07T15:42:58.288Z,71.90
2022-10-07T15:46:01.727Z,73.23
2022-10-07T15:49:06.069Z,72.60
2022-10-07T15:52:11.794Z,73.53
2022-10-07T15:55:16.406Z,74.81
2022-10-07T15:58:21.555Z,75.66
2022-10-07T16:01:28.403Z,75.23
2022-10-07T16:04:32.064Z,76.50
2022-10-07T16:07:35.257Z,75.95
2022-10-07T16:10:38.604Z,77.01
2022-10-07T16:13:43.706Z,77.44
2022-10-07T16:16:46.887Z,77.72
2022-10-07T16:19:49.960Z,76.91
2022-10-07T16:22:53.195Z,77.36
2022-10-07T16:25:56.244Z,78.16
2022-10-07T16:29:20.341Z,79.32
2022-10-07T16:32:23.622Z,80.15
2022-10-07T16:35:30.496Z,81.51
2022-10-07T16:38:33.613Z,82.75
2022-10-07T16:41:41.686Z,83.80
2022-10-07T16:44:49.884Z,84.28
2022-10-07T16:47:56.607Z,85.10
2022-10-07T16:50:59.631Z,85.93
2022-10-07T16:54:13.502Z,86.26
2022-10-07T16:57:16.523Z,86.97
2022-10-07T17:00:20.219Z,87.47
2022-10-07T17:03:23.625Z,88.30
2022-10-07T17:06:29.709Z,89.15
2022-10-07T17:09:32.871Z,90.26
2022-10-07T17:12:37.944Z,90.71
2022-10-07T17:15:40.988Z,90.95
2022-10-07T17:18:44.550Z,91.32
2022-10-07T17:21:48.634Z,92.04
2022-10-07T17:24:53.219Z,92.44
2022-10-07T17:27:56.249Z,93.07
2022-10-07T17:31:13.639Z,93.43
2022-10-07T17:34:22.256Z,93.84
2022-10-07T17:37:26.800Z,94.27
2022-10-07T17:40:32.040Z,94.84
2022-10-07T17:43:35.831Z,95.44
2022-10-07T17:46:40.439Z,95.89
2022-10-07T21:11:21.978Z,100.00
2022-10-07T21:14:25.791Z,100.00
2022-10-07T21:17:28.816Z,100.00
2022-10-07T21:20:32.588Z,100.00
2022-10-07T21:23:35.696Z,100.00
2022-10-07T21:26:39.172Z,100.00
2022-10-07T21:29:45.721Z,100.00
2022-10-07T21:32:51.516Z,100.00
2022-10-07T21:36:04.312Z,100.00
2022-10-07T21:39:08.061Z,100.00
2022-10-07T21:42:11.545Z,100.00
2022-10-07T21:45:15.935Z,100.00
2022-10-07T21:48:19.604Z,100.00
2022-10-07T21:51:23.967Z,100.00
2022-10-07T21:54:27.674Z,100.00
2022-10-07T21:57:30.913Z,100.00
2022-10-07T22:00:35.091Z,100.00
2022-10-07T22:03:39.144Z,100.00
2022-10-07T22:07:00.650Z,100.00
2022-10-07T22:10:04.299Z,100.00
2022-10-07T22:13:07.834Z,100.00
2022-10-07T22:16:17.338Z,100.00
2022-10-07T22:19:20.548Z,100.00
2022-10-07T22:22:25.204Z,100.00
2022-10-07T22:25:28.409Z,100.00
2022-10-07T22:28:31.907Z,100.00
2022-10-07T22:31:35.757Z,100.00
2022-10-07T22:34:57.798Z,100.00
2022-10-07T22:38:03.140Z,100.00
2022-10-07T22:41:09.027Z,100.00
2022-10-07T22:44:12.115Z,100.00
2022-10-07T22:47:21.284Z,100.00
2022-10-07T22:50:24.598Z,100.00
2022-10-07T22:53:28.097Z,100.00
2022-10-07T22:56:31.404Z,100.00
2022-10-07T22:59:36.122Z,100.00
2022-10-07T23:02:39.463Z,100.00
2022-10-07T23:05:44.017Z,100.00
2022-10-07T23:08:48.715Z,100.00
2022-10-07T23:11:52.248Z,100.00
2022-10-07T23:14:55.673Z,100.00
2022-10-07T23:17:59.123Z,100.00
2022-10-07T23:21:03.985Z,100.00
2022-10-07T23:24:08.493Z,100.00
2022-10-07T23:27:14.103Z,100.00
2022-10-07T23:30:21.262Z,100.00
2022-10-07T23:33:24.604Z,100.00
2022-10-07T23:36:28.453Z,100.00
2022-10-07T23:39:34.043Z,100.00
2022-10-07T23:42:37.410Z,100.00
2022-10-07T23:45:45.606Z,100.00
2022-10-07T23:48:49.842Z,100.00
2022-10-07T23:51:53.629Z,100.00
2022-10-07T23:54:56.987Z,100.00
2022-10-07T23:58:02.073Z,100.00
